createdAt,value
2023-03-16T00:00:16.570Z,50.40
2023-03-16T00:02:45.232Z,49.87
2023-03-16T00:05:13.956Z,50.08
2023-03-16T00:07:42.071Z,50.57
2023-03-16T00:10:12.324Z,50.66
2023-03-16T00:12:39.557Z,51.05
2023-03-16T00:15:06.859Z,51.00
2023-03-16T00:17:34.730Z,51.11
2023-03-16T00:20:06.796Z,51.31
2023-03-16T00:22:34.198Z,51.34
2023-03-16T00:25:01.752Z,51.35
2023-03-16T00:27:29.589Z,51.30
2023-03-16T00:29:56.520Z,51.54
2023-03-16T00:32:29.316Z,50.98
2023-03-16T00:34:56.302Z,51.67
2023-03-16T00:37:24.248Z,51.41
2023-03-16T00:39:51.503Z,51.48
2023-03-16T00:42:19.681Z,51.73
2023-03-16T00:44:46.931Z,51.40
2023-03-16T00:47:16.904Z,51.54
2023-03-16T00:49:44.749Z,51.48
2023-03-16T00:52:16.177Z,51.43
2023-03-16T00:54:45.076Z,51.57
2023-03-16T00:57:14.043Z,51.71
2023-03-16T00:59:40.850Z,51.76
2023-03-16T01:02:09.232Z,51.63
2023-03-16T01:04:36.594Z,51.53
2023-03-16T01:07:12.404Z,50.40
2023-03-16T01:09:42.810Z,51.14
2023-03-16T01:12:15.978Z,50.56
2023-03-16T01:14:45.768Z,51.43
2023-03-16T01:17:13.950Z,51.31
2023-03-16T01:19:41.619Z,51.26
2023-03-16T01:22:10.205Z,51.51
2023-03-16T01:24:37.405Z,51.56
2023-03-16T01:27:05.252Z,51.41
2023-03-16T01:29:33.100Z,51.73
2023-03-16T01:32:00.529Z,51.70
2023-03-16T01:34:28.067Z,51.35
2023-03-16T01:36:54.636Z,51.72
2023-03-16T01:39:21.062Z,51.96
2023-03-16T01:41:47.954Z,52.28
2023-03-16T01:44:22.400Z,51.84
2023-03-16T01:46:48.937Z,52.24
2023-03-16T01:49:25.192Z,51.72
2023-03-16T01:52:02.574Z,51.60
2023-03-16T01:54:40.902Z,51.37
2023-03-16T01:57:18.360Z,51.27
2023-03-16T02:00:18.516Z,51.27
2023-03-16T02:02:48.536Z,52.39
2023-03-16T02:05:25.649Z,51.35
2023-03-16T02:07:58.876Z,52.65
2023-03-16T02:10:28.883Z,52.27
2023-03-16T02:12:55.668Z,52.70
2023-03-16T02:15:22.190Z,52.48
2023-03-16T02:17:50.340Z,52.32
2023-03-16T02:20:29.145Z,52.24
2023-03-16T02:22:55.944Z,52.55
2023-03-16T02:25:27.000Z,52.31
2023-03-16T02:28:00.573Z,51.74
2023-03-16T02:30:27.654Z,52.50
2023-03-16T02:32:54.928Z,52.61
2023-03-16T02:35:21.998Z,52.82
2023-03-16T02:37:48.705Z,52.78
2023-03-16T02:40:25.685Z,52.01
2023-03-16T02:43:05.287Z,51.78
2023-03-16T02:45:39.258Z,52.76
2023-03-16T02:48:14.938Z,52.29
2023-03-16T02:50:49.899Z,51.99
2023-03-16T02:53:17.600Z,53.02
2023-03-16T02:55:45.008Z,52.82
2023-03-16T02:58:11.745Z,52.82
2023-03-16T03:00:38.555Z,53.07
2023-03-16T03:03:08.247Z,52.87
2023-03-16T03:05:35.362Z,53.23
2023-03-16T03:08:01.724Z,53.17
2023-03-16T03:10:28.506Z,53.15
2023-03-16T03:12:55.133Z,53.08
2023-03-16T03:15:21.882Z,53.25
2023-03-16T03:17:48.393Z,53.15
2023-03-16T03:20:16.597Z,52.88
2023-03-16T03:22:48.646Z,52.54
2023-03-16T03:25:17.185Z,53.16
2023-03-16T03:27:44.986Z,53.61
2023-03-16T03:30:14.687Z,52.85
2023-03-16T03:32:41.662Z,53.57
2023-03-16T03:35:08.630Z,53.45
2023-03-16T03:37:35.248Z,53.52
2023-03-16T03:40:10.350Z,53.28
2023-03-16T03:42:36.744Z,53.27
2023-03-16T03:45:03.440Z,53.31
2023-03-16T03:47:29.901Z,53.36
2023-03-16T03:49:56.400Z,53.14
2023-03-16T03:52:22.889Z,53.17
2023-03-16T03:54:49.341Z,53.04
2023-03-16T03:57:15.863Z,53.01
2023-03-16T03:59:45.254Z,53.18
2023-03-16T04:02:13.288Z,52.71
2023-03-16T04:04:41.720Z,52.75
2023-03-16T04:07:08.737Z,52.82
2023-03-16T04:09:35.219Z,52.90
2023-03-16T04:12:05.159Z,52.56
2023-03-16T04:14:32.517Z,52.79
2023-03-16T04:16:59.346Z,52.74
2023-03-16T04:19:26.352Z,52.67
2023-03-16T04:21:53.287Z,52.95
2023-03-16T04:24:19.914Z,53.03
2023-03-16T04:26:46.485Z,52.97
2023-03-16T04:29:14.469Z,53.02
2023-03-16T04:31:42.316Z,53.01
2023-03-16T04:34:09.579Z,53.26
2023-03-16T04:36:36.063Z,53.02
2023-03-16T04:39:02.878Z,53.04
2023-03-16T04:41:29.359Z,52.96
2023-03-16T04:43:57.640Z,52.70
2023-03-16T04:46:26.707Z,53.09
2023-03-16T04:48:53.977Z,53.24
2023-03-16T04:51:21.509Z,53.09
2023-03-16T04:53:48.168Z,52.76
2023-03-16T04:56:19.442Z,52.84
2023-03-16T04:58:47.846Z,52.73
2023-03-16T05:01:15.219Z,53.34
2023-03-16T05:03:43.652Z,53.23
2023-03-16T05:06:11.907Z,53.18
2023-03-16T05:08:38.434Z,53.00
2023-03-16T05:11:05.191Z,53.03
2023-03-16T05:13:31.743Z,53.11
2023-03-16T05:15:58.292Z,53.27
2023-03-16T05:18:24.995Z,53.02
2023-03-16T05:20:53.548Z,53.06
2023-03-16T05:23:20.673Z,53.28
2023-03-16T05:25:48.366Z,52.90
2023-03-16T05:28:15.097Z,53.06
2023-03-16T05:30:42.630Z,52.66
2023-03-16T05:33:09.503Z,53.13
2023-03-16T05:35:36.081Z,53.16
2023-03-16T05:38:02.826Z,52.93
2023-03-16T05:40:29.726Z,52.84
2023-03-16T05:42:57.872Z,52.93
2023-03-16T05:45:24.888Z,52.89
2023-03-16T05:47:51.838Z,52.87
2023-03-16T05:50:18.396Z,52.88
2023-03-16T05:52:46.132Z,52.99
2023-03-16T05:55:14.577Z,52.63
2023-03-16T05:57:41.587Z,52.89
2023-03-16T06:00:14.491Z,52.80
2023-03-16T06:02:44.603Z,51.44
2023-03-16T06:05:11.371Z,53.47
2023-03-16T06:07:38.019Z,53.10
2023-03-16T06:10:05.904Z,53.31
2023-03-16T06:12:34.057Z,53.13
2023-03-16T06:15:01.622Z,53.47
2023-03-16T06:17:28.200Z,53.56
2023-03-16T06:19:54.634Z,53.76
2023-03-16T06:22:21.149Z,53.50
2023-03-16T06:24:47.619Z,53.22
2023-03-16T06:27:14.084Z,53.25
2023-03-16T06:29:40.511Z,53.38
2023-03-16T06:32:07.192Z,53.35
2023-03-16T06:34:35.435Z,53.31
2023-03-16T06:37:04.364Z,53.56
2023-03-16T06:39:31.267Z,53.54
2023-03-16T06:41:58.229Z,53.51
2023-03-16T06:44:24.680Z,53.60
2023-03-16T06:46:51.176Z,53.62
2023-03-16T06:49:17.633Z,53.43
2023-03-16T06:51:44.041Z,53.06
2023-03-16T06:54:10.516Z,53.06
2023-03-16T06:56:36.944Z,53.07
2023-03-16T06:59:03.406Z,53.30
2023-03-16T07:01:30.295Z,53.36
2023-03-16T07:03:56.822Z,53.42
2023-03-16T07:06:23.301Z,53.55
2023-03-16T07:08:49.839Z,53.29
2023-03-16T07:11:16.297Z,53.11
2023-03-16T07:13:42.812Z,53.10
2023-03-16T07:16:09.344Z,53.38
2023-03-16T07:18:37.954Z,53.47
2023-03-16T07:21:04.707Z,53.47
2023-03-16T07:23:32.280Z,53.22
2023-03-16T07:25:58.859Z,53.66
2023-03-16T07:28:25.464Z,53.34
2023-03-16T07:31:02.905Z,53.56
2023-03-16T07:33:29.744Z,53.73
2023-03-16T07:35:56.306Z,53.46
2023-03-16T07:38:22.881Z,53.62
2023-03-16T07:40:50.097Z,53.76
2023-03-16T07:43:16.723Z,53.96
2023-03-16T07:45:48.047Z,52.91
2023-03-16T07:48:14.577Z,53.81
2023-03-16T07:50:41.563Z,53.50
2023-03-16T07:53:08.114Z,53.46
2023-03-16T07:55:36.649Z,53.44
2023-03-16T07:58:05.134Z,52.96
2023-03-16T08:00:33.668Z,52.56
2023-03-16T08:03:00.513Z,53.17
2023-03-16T08:05:27.864Z,53.08
2023-03-16T08:07:57.240Z,52.82
2023-03-16T08:10:24.518Z,53.02
2023-03-16T08:12:51.699Z,53.00
2023-03-16T08:15:19.328Z,53.20
2023-03-16T08:17:46.685Z,53.44
2023-03-16T08:20:15.644Z,53.14
2023-03-16T08:22:46.108Z,52.86
2023-03-16T08:25:13.582Z,52.99
2023-03-16T08:27:40.317Z,52.47
2023-03-16T08:30:11.385Z,52.31
2023-03-16T08:32:39.693Z,52.49
2023-03-16T08:35:16.818Z,51.59
2023-03-16T08:37:43.675Z,52.57
2023-03-16T08:40:14.136Z,52.31
2023-03-16T08:42:41.539Z,52.74
2023-03-16T08:45:12.396Z,53.14
2023-03-16T08:47:40.516Z,53.41
2023-03-16T08:50:09.104Z,53.19
2023-03-16T08:52:39.186Z,53.06
2023-03-16T08:55:07.260Z,52.77
2023-03-16T08:57:34.451Z,52.94
2023-03-16T09:00:01.554Z,52.79
2023-03-16T09:02:28.102Z,52.85
2023-03-16T09:04:54.678Z,52.58
2023-03-16T09:07:22.000Z,52.67
2023-03-16T09:09:48.548Z,52.14
2023-03-16T09:12:15.058Z,52.41
2023-03-16T09:14:41.687Z,52.31
2023-03-16T09:17:08.231Z,52.10
2023-03-16T09:19:50.479Z,51.85
2023-03-16T09:22:19.611Z,52.31
2023-03-16T09:24:46.377Z,52.27
2023-03-16T09:27:13.040Z,52.63
2023-03-16T09:29:41.059Z,52.25
2023-03-16T09:32:08.571Z,52.48
2023-03-16T09:34:35.223Z,52.23
2023-03-16T09:37:02.539Z,52.00
2023-03-16T09:39:29.437Z,52.29
2023-03-16T09:42:17.323Z,51.02
2023-03-16T09:44:58.685Z,50.63
2023-03-16T09:47:32.160Z,50.81
2023-03-16T09:50:02.387Z,52.26
2023-03-16T09:52:38.363Z,50.72
2023-03-16T09:55:23.490Z,51.94
2023-03-16T09:57:51.903Z,51.85
2023-03-16T10:00:22.250Z,51.08
2023-03-16T10:03:10.035Z,52.08
2023-03-16T10:05:37.542Z,52.38
2023-03-16T10:08:21.192Z,51.82
2023-03-16T10:11:25.848Z,49.81
2023-03-16T10:14:17.651Z,49.41
2023-03-16T10:17:01.221Z,49.35
2023-03-16T10:19:39.244Z,49.23
2023-03-16T10:22:17.568Z,46.23
2023-03-16T10:25:09.456Z,45.27
2023-03-16T10:27:38.838Z,48.82
2023-03-16T10:30:20.954Z,46.80
2023-03-16T10:32:48.548Z,49.08
2023-03-16T10:35:37.556Z,45.00
2023-03-16T10:38:04.479Z,49.10
2023-03-16T10:40:33.352Z,49.25
2023-03-16T10:43:16.451Z,47.83
2023-03-16T10:45:43.303Z,49.04
2023-03-16T10:48:15.384Z,47.61
2023-03-16T10:50:44.382Z,48.56
2023-03-16T10:53:21.496Z,48.11
2023-03-16T10:55:48.555Z,50.06
2023-03-16T10:58:30.912Z,48.28
2023-03-16T11:00:57.757Z,49.16
2023-03-16T11:03:32.173Z,48.18
2023-03-16T11:06:04.114Z,49.92
2023-03-16T11:08:34.049Z,50.15
2023-03-16T11:11:09.750Z,49.01
2023-03-16T11:13:38.694Z,49.20
2023-03-16T11:16:37.697Z,48.38
2023-03-16T11:19:31.440Z,50.24
2023-03-16T11:22:17.753Z,50.21
2023-03-16T11:24:53.780Z,51.76
2023-03-16T11:27:37.411Z,50.11
2023-03-16T11:30:12.423Z,51.42
2023-03-16T11:32:42.138Z,52.13
2023-03-16T11:35:16.576Z,52.23
2023-03-16T11:38:10.994Z,51.75
2023-03-16T11:40:47.441Z,52.12
2023-03-16T11:43:16.667Z,53.51
2023-03-16T11:46:22.878Z,50.89
2023-03-16T11:49:14.447Z,51.75
2023-03-16T11:51:52.946Z,54.17
2023-03-16T11:54:53.476Z,53.15
2023-03-16T11:57:46.599Z,52.80
2023-03-16T12:00:36.417Z,52.92
2023-03-16T12:03:31.184Z,52.23
2023-03-16T12:06:22.355Z,53.72
2023-03-16T12:09:07.949Z,52.63
2023-03-16T12:11:48.156Z,52.37
2023-03-16T12:14:27.643Z,52.10
2023-03-16T12:17:15.745Z,50.64
2023-03-16T12:20:07.119Z,50.37
2023-03-16T12:22:39.494Z,51.45
2023-03-16T12:25:16.995Z,51.14
2023-03-16T12:27:45.496Z,52.65
2023-03-16T12:30:58.373Z,50.30
2023-03-16T12:34:08.317Z,50.55
2023-03-16T12:36:50.052Z,51.03
2023-03-16T12:39:38.169Z,52.07
2023-03-16T12:42:20.865Z,50.61
2023-03-16T12:45:02.487Z,51.84
2023-03-16T12:47:50.769Z,50.87
2023-03-16T12:50:19.756Z,51.55
2023-03-16T12:52:49.358Z,50.84
2023-03-16T12:55:34.506Z,49.62
2023-03-16T12:58:06.280Z,51.60
2023-03-16T13:00:35.934Z,51.60
2023-03-16T13:03:03.898Z,52.29
2023-03-16T13:05:34.666Z,52.17
2023-03-16T13:08:14.613Z,51.01
2023-03-16T13:10:41.405Z,53.67
2023-03-16T13:13:16.147Z,51.33
2023-03-16T13:15:47.232Z,51.58
2023-03-16T13:18:20.237Z,48.85
2023-03-16T13:20:49.565Z,47.90
2023-03-16T13:23:24.530Z,48.14
2023-03-16T13:26:05.758Z,44.97
2023-03-16T13:28:35.943Z,47.07
2023-03-16T13:31:04.645Z,47.55
2023-03-16T13:33:38.294Z,46.92
2023-03-16T13:36:08.480Z,46.32
2023-03-16T13:38:34.986Z,46.75
2023-03-16T13:41:10.401Z,44.86
2023-03-16T13:43:41.634Z,45.58
2023-03-16T13:46:21.249Z,43.00
2023-03-16T13:48:48.801Z,47.10
2023-03-16T13:51:18.608Z,46.61
2023-03-16T13:53:45.471Z,47.90
2023-03-16T13:56:17.213Z,46.69
2023-03-16T13:58:48.388Z,47.31
2023-03-16T14:01:33.261Z,46.50
2023-03-16T14:04:08.603Z,47.88
2023-03-16T14:06:36.646Z,48.20
2023-03-16T14:09:06.668Z,47.29
2023-03-16T14:11:33.363Z,48.46
2023-03-16T14:14:00.565Z,48.39
2023-03-16T14:16:29.726Z,48.45
2023-03-16T14:19:06.552Z,48.04
2023-03-16T14:21:34.689Z,50.09
2023-03-16T14:24:05.540Z,50.82
2023-03-16T14:26:46.749Z,48.29
2023-03-16T14:29:31.284Z,49.14
2023-03-16T14:31:59.881Z,51.68
2023-03-16T14:34:34.715Z,46.71
2023-03-16T14:37:11.290Z,45.39
2023-03-16T14:39:40.282Z,46.27
2023-03-16T14:42:15.414Z,43.42
2023-03-16T14:44:42.353Z,44.91
2023-03-16T14:47:22.280Z,42.46
2023-03-16T14:49:48.803Z,44.41
2023-03-16T14:52:33.907Z,42.51
2023-03-16T14:55:03.547Z,44.20
2023-03-16T14:57:30.577Z,44.49
2023-03-16T14:59:56.974Z,44.76
2023-03-16T15:02:29.637Z,42.56
2023-03-16T15:04:57.612Z,44.94
2023-03-16T15:07:27.430Z,44.70
2023-03-16T15:09:56.415Z,45.15
2023-03-16T15:12:25.009Z,45.81
2023-03-16T15:15:10.509Z,45.96
2023-03-16T15:17:37.047Z,46.33
2023-03-16T15:20:04.004Z,46.21
2023-03-16T15:22:33.714Z,45.37
2023-03-16T15:25:23.049Z,45.01
2023-03-16T15:27:50.061Z,46.68
2023-03-16T15:30:19.071Z,46.23
2023-03-16T15:32:45.777Z,46.58
2023-03-16T15:35:12.349Z,46.33
2023-03-16T15:37:39.359Z,46.13
2023-03-16T15:40:16.994Z,43.88
2023-03-16T15:42:46.315Z,45.64
2023-03-16T15:45:17.468Z,45.05
2023-03-16T15:47:44.705Z,45.28
2023-03-16T15:50:15.533Z,44.57
2023-03-16T15:52:47.970Z,44.20
2023-03-16T15:55:33.133Z,43.30
2023-03-16T15:58:02.225Z,45.18
2023-03-16T16:00:31.276Z,45.25
2023-03-16T16:03:08.827Z,43.45
2023-03-16T16:05:36.157Z,45.43
2023-03-16T16:08:02.551Z,45.26
2023-03-16T16:10:29.355Z,45.20
2023-03-16T16:12:56.890Z,45.00
2023-03-16T16:15:31.048Z,44.40
2023-03-16T16:18:19.705Z,45.43
2023-03-16T16:20:44.436Z,45.74
2023-03-16T16:23:10.865Z,45.48
2023-03-16T16:25:41.230Z,45.32
2023-03-16T16:28:19.693Z,43.64
2023-03-16T16:30:46.228Z,45.54
2023-03-16T16:33:24.642Z,44.40
2023-03-16T16:35:52.643Z,45.50
2023-03-16T16:38:19.208Z,45.69
2023-03-16T16:40:46.292Z,45.83
2023-03-16T16:43:29.526Z,43.91
2023-03-16T16:45:56.233Z,46.11
2023-03-16T16:48:31.762Z,44.98
2023-03-16T16:50:59.841Z,46.27
2023-03-16T16:53:26.329Z,46.37
2023-03-16T16:55:53.624Z,46.59
2023-03-16T16:58:24.471Z,46.48
2023-03-16T17:00:58.797Z,44.98
2023-03-16T17:03:28.195Z,45.54
2023-03-16T17:05:57.754Z,46.11
2023-03-16T17:08:25.778Z,46.49
2023-03-16T17:10:53.796Z,46.48
2023-03-16T17:13:36.658Z,45.05
2023-03-16T17:16:03.102Z,46.79
2023-03-16T17:18:29.895Z,46.89
2023-03-16T17:20:56.901Z,46.97
2023-03-16T17:23:32.628Z,46.02
2023-03-16T17:26:11.609Z,45.99
2023-03-16T17:28:43.390Z,46.18
2023-03-16T17:31:12.536Z,46.63
2023-03-16T17:33:39.011Z,47.07
2023-03-16T17:36:06.539Z,47.25
2023-03-16T17:38:33.606Z,47.51
2023-03-16T17:41:00.191Z,47.54
2023-03-16T17:43:29.006Z,47.41
2023-03-16T17:45:55.460Z,47.75
2023-03-16T17:48:24.084Z,47.70
2023-03-16T17:50:51.533Z,48.04
2023-03-16T17:53:19.541Z,48.07
2023-03-16T17:55:46.733Z,48.05
2023-03-16T17:58:23.867Z,47.13
2023-03-16T18:00:50.915Z,48.49
2023-03-16T18:03:17.592Z,48.64
2023-03-16T18:05:45.690Z,48.67
2023-03-16T18:08:46.711Z,47.59
2023-03-16T18:11:19.309Z,48.48
2023-03-16T18:13:47.945Z,48.80
2023-03-16T18:16:19.819Z,48.64
2023-03-16T18:18:46.505Z,48.95
2023-03-16T18:21:58.247Z,47.77
2023-03-16T18:24:26.656Z,49.13
2023-03-16T18:26:53.936Z,49.23
2023-03-16T18:29:20.367Z,49.17
2023-03-16T18:31:47.471Z,49.18
2023-03-16T18:34:23.659Z,48.35
2023-03-16T18:36:53.056Z,49.25
2023-03-16T18:39:21.956Z,49.09
2023-03-16T18:41:48.303Z,49.71
2023-03-16T18:44:22.404Z,49.04
2023-03-16T18:46:50.581Z,49.63
2023-03-16T18:49:19.280Z,49.13
2023-03-16T18:51:49.136Z,49.41
2023-03-16T18:54:18.760Z,48.97
2023-03-16T18:56:45.096Z,49.63
2023-03-16T18:59:12.403Z,49.87
2023-03-16T19:01:42.080Z,49.49
2023-03-16T19:04:23.726Z,48.44
2023-03-16T19:06:53.275Z,49.89
2023-03-16T19:09:26.503Z,49.21
2023-03-16T19:11:53.143Z,49.98
2023-03-16T19:14:45.858Z,48.90
2023-03-16T19:17:12.220Z,50.25
2023-03-16T19:19:38.700Z,50.19
2023-03-16T19:22:16.006Z,48.82
2023-03-16T19:24:47.163Z,49.71
2023-03-16T19:27:25.624Z,49.47
2023-03-16T19:29:53.867Z,50.29
2023-03-16T19:32:22.136Z,50.62
2023-03-16T19:34:49.044Z,50.45
2023-03-16T19:37:16.847Z,50.53
2023-03-16T19:39:43.928Z,50.48
2023-03-16T19:42:25.756Z,49.72
2023-03-16T19:44:52.444Z,50.72
2023-03-16T19:47:27.765Z,49.72
2023-03-16T19:49:54.449Z,50.89
2023-03-16T19:52:21.083Z,50.82
2023-03-16T19:54:47.633Z,50.96
2023-03-16T19:57:17.839Z,50.64
2023-03-16T19:59:47.851Z,50.90
2023-03-16T20:02:38.535Z,49.93
2023-03-16T20:05:05.604Z,51.33
2023-03-16T20:07:37.825Z,51.26
2023-03-16T20:10:08.187Z,50.58
2023-03-16T20:12:42.277Z,50.28
2023-03-16T20:15:20.956Z,50.52
2023-03-16T20:17:49.051Z,51.70
2023-03-16T20:20:22.548Z,50.91
2023-03-16T20:22:49.277Z,51.73
2023-03-16T20:25:16.278Z,51.53
2023-03-16T20:27:43.674Z,51.55
2023-03-16T20:30:18.748Z,50.59
2023-03-16T20:32:46.706Z,51.50
2023-03-16T20:35:32.452Z,50.47
2023-03-16T20:37:59.199Z,51.90
2023-03-16T20:40:26.174Z,51.73
2023-03-16T20:42:53.153Z,51.81
2023-03-16T20:45:24.043Z,51.53
2023-03-16T20:47:52.664Z,51.84
2023-03-16T20:50:30.745Z,50.53
2023-03-16T20:52:57.484Z,52.03
2023-03-16T20:55:27.154Z,52.03
2023-03-16T20:57:55.391Z,52.00
2023-03-16T21:00:37.201Z,50.90
2023-03-16T21:03:13.958Z,51.78
2023-03-16T21:05:40.841Z,52.26
2023-03-16T21:08:08.142Z,52.24
2023-03-16T21:10:34.656Z,52.37
2023-03-16T21:13:01.502Z,52.30
2023-03-16T21:15:31.527Z,52.07
2023-03-16T21:18:15.081Z,52.44
2023-03-16T21:20:41.477Z,50.79
2023-03-16T21:23:17.855Z,51.08
2023-03-16T21:25:48.192Z,52.28
2023-03-16T21:28:15.630Z,52.48
2023-03-16T21:30:48.674Z,52.07
2023-03-16T21:33:23.382Z,52.07
2023-03-16T21:35:50.035Z,52.72
2023-03-16T21:38:20.810Z,52.04
2023-03-16T21:40:48.434Z,52.55
2023-03-16T21:43:15.969Z,52.84
2023-03-16T21:45:43.791Z,52.92
2023-03-16T21:48:18.642Z,52.14
2023-03-16T21:50:45.433Z,52.91
2023-03-16T21:53:22.787Z,52.06
2023-03-16T21:55:51.642Z,52.80
2023-03-16T21:58:18.887Z,53.11
2023-03-16T22:00:46.769Z,52.97
2023-03-16T22:03:50.179Z,51.00
2023-03-16T22:06:18.019Z,52.83
2023-03-16T22:08:44.742Z,52.74
2023-03-16T22:11:23.340Z,52.03
2023-03-16T22:13:51.708Z,52.85
2023-03-16T22:16:21.126Z,52.91
2023-03-16T22:18:50.886Z,52.44
2023-03-16T22:21:39.315Z,51.29
2023-03-16T22:24:13.468Z,52.88
2023-03-16T22:26:40.442Z,53.00
2023-03-16T22:29:28.097Z,51.93
2023-03-16T22:32:10.565Z,52.11
2023-03-16T22:34:53.818Z,51.92
2023-03-16T22:37:23.079Z,51.29
2023-03-16T22:39:50.238Z,52.92
2023-03-16T22:42:33.575Z,52.42
2023-03-16T22:45:00.705Z,51.52
2023-03-16T22:47:32.285Z,52.97
2023-03-16T22:49:59.269Z,53.10
2023-03-16T22:52:29.997Z,52.62
2023-03-16T22:54:58.798Z,53.09
2023-03-16T22:57:25.596Z,53.17
2023-03-16T22:59:52.635Z,53.25
2023-03-16T23:02:24.224Z,52.77
2023-03-16T23:04:51.039Z,53.09
2023-03-16T23:07:18.118Z,52.84
2023-03-16T23:09:44.586Z,53.42
2023-03-16T23:12:17.279Z,52.43
2023-03-16T23:14:43.752Z,53.10
2023-03-16T23:17:18.629Z,52.06
2023-03-16T23:19:45.689Z,53.21
2023-03-16T23:22:12.657Z,53.05
2023-03-16T23:24:39.277Z,52.97
2023-03-16T23:27:16.394Z,51.82
2023-03-16T23:29:43.078Z,52.32
2023-03-16T23:32:11.338Z,52.56
2023-03-16T23:34:37.835Z,52.77
2023-03-16T23:37:04.371Z,53.05
2023-03-16T23:39:30.870Z,52.76
2023-03-16T23:41:57.704Z,53.12
2023-03-16T23:44:27.592Z,52.43
2023-03-16T23:46:54.617Z,52.70
2023-03-16T23:49:27.652Z,52.18
2023-03-16T23:51:56.202Z,52.53
2023-03-16T23:54:25.456Z,52.94
2023-03-16T23:56:52.549Z,53.15
2023-03-16T23:59:20.394Z,52.97
